Time;durP1;ratioP1;P1;durP2;ratioP2;P2;SDS_P1;SDS_P2;PMS_P1;PMS_P2;Temp;Humidity;BMP_temperature;BMP_pressure;BME280_temperature;BME280_humidity;BME280_pressure;Samples;Min_cycle;Max_cycle;Signal;HPM_P1;HPM_P2
2024/01/22 00:01:42;;;;;;;;;;;;;;;-2.78;100.00;96586.44;10429046;28;2989;-63
2024/01/22 00:06:46;;;;;;;;;;;;;;;-2.83;100.00;96589.56;10434415;28;3704;-63
2024/01/22 00:11:48;;;;;;;;;;;;;;;-2.80;100.00;96584.00;10434469;28;3042;-65
2024/01/22 00:16:51;;;;;;;;;;;;;;;-2.68;100.00;96586.22;10432627;28;2935;-66
2024/01/22 00:21:53;;;;;;;;;;;;;;;-2.63;100.00;96590.00;10426818;28;3022;-71
2024/01/22 00:26:56;;;;;;;;;;;;;;;-2.67;100.00;96572.06;10438470;28;2878;-68
2024/01/22 00:31:59;;;;;;;;;;;;;;;-2.53;100.00;96560.84;10433408;28;3061;-69
2024/01/22 00:37:01;;;;;;;;;;;;;;;-2.67;100.00;96561.53;10431440;28;3359;-67
2024/01/22 00:42:04;;;;;;;;;;;;;;;-2.76;100.00;96553.69;10428924;28;2953;-69
2024/01/22 00:47:07;;;;;;;;;;;;;;;-2.89;100.00;96550.78;10435876;28;2966;-69
2024/01/22 00:52:09;;;;;;;;;;;;;;;-2.86;100.00;96542.56;10434130;28;2970;-72
2024/01/22 00:57:11;;;;;;;;;;;;;;;-2.85;100.00;96535.50;10417902;28;3013;-65
2024/01/22 01:02:14;;;;;;;;;;;;;;;-2.73;100.00;96528.84;10431658;28;2882;-64
2024/01/22 01:07:16;;;;;;;;;;;;;;;-2.72;100.00;96517.34;10431292;28;2963;-63
2024/01/22 01:12:19;;;;;;;;;;;;;;;-2.68;100.00;96526.50;10434277;28;3049;-62
2024/01/22 01:17:21;;;;;;;;;;;;;;;-2.76;100.00;96531.81;10431720;28;2969;-64
2024/01/22 01:22:24;;;;;;;;;;;;;;;-2.65;100.00;96533.25;10433048;28;3005;-63
2024/01/22 01:27:26;;;;;;;;;;;;;;;-2.64;100.00;96522.56;10442438;28;3084;-63
2024/01/22 01:32:29;;;;;;;;;;;;;;;-2.51;100.00;96524.63;10441144;28;2875;-62
2024/01/22 01:37:31;;;;;;;;;;;;;;;-2.53;100.00;96510.81;10440815;28;3281;-64
2024/01/22 01:42:34;;;;;;;;;;;;;;;-2.49;100.00;96506.81;10447204;28;3024;-65
2024/01/22 01:47:36;;;;;;;;;;;;;;;-2.57;100.00;96491.09;10443291;28;2904;-62
2024/01/22 01:52:39;;;;;;;;;;;;;;;-2.50;100.00;96484.13;10443610;28;2954;-65
2024/01/22 01:57:41;;;;;;;;;;;;;;;-2.53;100.00;96487.13;10441614;28;2886;-64
2024/01/22 02:02:49;;;;;;;;;;;;;;;-2.58;100.00;96485.00;10438937;28;2803;-62
2024/01/22 02:07:52;;;;;;;;;;;;;;;-2.58;100.00;96486.81;10440415;28;2931;-64
2024/01/22 02:12:54;;;;;;;;;;;;;;;-2.57;100.00;96475.28;10440197;28;3096;-63
2024/01/22 02:17:57;;;;;;;;;;;;;;;-2.52;100.00;96465.06;10435708;28;3029;-64
2024/01/22 02:22:59;;;;;;;;;;;;;;;-2.51;100.00;96456.19;10436825;28;2989;-64
2024/01/22 02:28:02;;;;;;;;;;;;;;;-2.39;100.00;96454.78;10439606;28;3001;-64
2024/01/22 02:33:04;;;;;;;;;;;;;;;-2.37;100.00;96451.97;10444655;28;2950;-64
2024/01/22 02:38:07;;;;;;;;;;;;;;;-2.30;100.00;96432.63;10433764;28;3378;-63
2024/01/22 02:43:09;;;;;;;;;;;;;;;-2.17;100.00;96435.47;10437851;28;3025;-64
2024/01/22 02:48:11;;;;;;;;;;;;;;;-2.01;100.00;96415.28;10435283;28;3071;-64
2024/01/22 02:53:14;;;;;;;;;;;;;;;-1.94;100.00;96410.94;10435042;28;2985;-63
2024/01/22 02:58:16;;;;;;;;;;;;;;;-1.82;100.00;96398.13;10439134;28;2931;-63
2024/01/22 03:03:19;;;;;;;;;;;;;;;-1.83;100.00;96391.22;10416344;28;2975;-63
2024/01/22 03:08:22;;;;;;;;;;;;;;;-1.77;100.00;96388.69;10437871;28;2977;-64
2024/01/22 03:13:25;;;;;;;;;;;;;;;-1.81;100.00;96383.94;10437227;28;2875;-65
2024/01/22 03:18:28;;;;;;;;;;;;;;;-1.73;100.00;96376.75;10418624;28;2979;-63
2024/01/22 03:23:31;;;;;;;;;;;;;;;-1.68;100.00;96365.69;10436275;28;3295;-64
2024/01/22 03:28:34;;;;;;;;;;;;;;;-1.70;100.00;96370.31;10433914;28;3037;-63
2024/01/22 03:33:36;;;;;;;;;;;;;;;-1.59;100.00;96379.56;10435697;28;2894;-63
2024/01/22 03:38:39;;;;;;;;;;;;;;;-1.54;100.00;96375.38;10435811;28;3398;-62
2024/01/22 03:43:42;;;;;;;;;;;;;;;-1.64;100.00;96378.31;10432428;28;3022;-64
2024/01/22 03:48:44;;;;;;;;;;;;;;;-1.69;100.00;96370.13;10419003;28;2849;-63
2024/01/22 03:53:47;;;;;;;;;;;;;;;-1.72;100.00;96367.88;10433621;28;2962;-64
2024/01/22 03:58:51;;;;;;;;;;;;;;;-1.85;100.00;96361.59;10434437;28;2930;-64
2024/01/22 04:03:54;;;;;;;;;;;;;;;-1.71;100.00;96351.06;10437277;28;2976;-64
2024/01/22 04:08:56;;;;;;;;;;;;;;;-1.63;100.00;96343.03;10435018;28;2883;-64
2024/01/22 04:13:59;;;;;;;;;;;;;;;-1.52;100.00;96330.41;10438817;28;2899;-62
2024/01/22 04:19:01;;;;;;;;;;;;;;;-1.39;100.00;96312.09;10416589;28;3200;-63
2024/01/22 04:24:04;;;;;;;;;;;;;;;-1.21;100.00;96306.41;10430976;28;2962;-63
2024/01/22 04:29:06;;;;;;;;;;;;;;;-1.20;100.00;96298.31;10440965;28;3132;-63
2024/01/22 04:34:09;;;;;;;;;;;;;;;-1.11;100.00;96285.81;10434874;28;2986;-63
2024/01/22 04:39:12;;;;;;;;;;;;;;;-1.14;100.00;96281.75;10433246;28;3292;-64
2024/01/22 04:44:14;;;;;;;;;;;;;;;-1.09;100.00;96271.41;10431149;28;3220;-64
2024/01/22 04:49:17;;;;;;;;;;;;;;;-1.04;100.00;96259.50;10433251;28;3089;-63
2024/01/22 04:54:20;;;;;;;;;;;;;;;-1.02;100.00;96246.91;10433127;28;2988;-69
2024/01/22 04:59:22;;;;;;;;;;;;;;;-0.88;100.00;96224.94;10444063;28;3313;-67
2024/01/22 05:04:25;;;;;;;;;;;;;;;-0.81;100.00;96233.72;10443694;28;3021;-64
2024/01/22 05:09:27;;;;;;;;;;;;;;;-0.69;100.00;96216.34;10446436;28;2940;-63
2024/01/22 05:14:30;;;;;;;;;;;;;;;-0.63;100.00;96205.00;10442170;28;2904;-64
2024/01/22 05:19:32;;;;;;;;;;;;;;;-0.63;100.00;96212.94;10445658;28;2970;-64
2024/01/22 05:24:35;;;;;;;;;;;;;;;-0.61;100.00;96218.00;10445274;28;3009;-68
2024/01/22 05:29:37;;;;;;;;;;;;;;;-0.72;100.00;96206.16;10438506;28;3157;-64
2024/01/22 05:34:40;;;;;;;;;;;;;;;-0.76;100.00;96202.28;10441805;28;3041;-65
2024/01/22 05:39:42;;;;;;;;;;;;;;;-0.71;100.00;96201.69;10437915;28;3360;-64
2024/01/22 05:44:44;;;;;;;;;;;;;;;-0.69;100.00;96189.13;10439670;28;3072;-64
2024/01/22 05:49:47;;;;;;;;;;;;;;;-0.64;100.00;96203.34;10436952;28;3005;-64
2024/01/22 05:54:49;;;;;;;;;;;;;;;-0.63;100.00;96201.56;10437792;28;3024;-64
2024/01/22 05:59:52;;;;;;;;;;;;;;;-0.42;100.00;96201.47;10436038;28;2942;-65
2024/01/22 06:04:56;;;;;;;;;;;;;;;-0.22;100.00;96212.16;10442040;28;2985;-65
2024/01/22 06:09:58;;;;;;;;;;;;;;;-0.45;100.00;96222.97;10436810;28;3083;-63
2024/01/22 06:15:09;;;;;;;;;;;;;;;-0.22;100.00;96212.16;10444040;28;3222;-65
2024/01/22 06:20:12;;;;;;;;;;;;;;;-0.43;100.00;96199.84;10443290;28;2958;-63
2024/01/22 06:25:15;;;;;;;;;;;;;;;-0.49;100.00;96203.28;10437503;28;2965;-64
2024/01/22 06:30:17;;;;;;;;;;;;;;;-0.21;100.00;96191.84;10440743;28;3037;-64
2024/01/22 06:35:20;;;;;;;;;;;;;;;-0.16;100.00;96200.00;10437920;28;2997;-64
2024/01/22 06:40:22;;;;;;;;;;;;;;;-0.14;100.00;96167.06;10431577;28;3019;-64
2024/01/22 06:45:25;;;;;;;;;;;;;;;-0.02;100.00;96164.69;10435537;28;2905;-65
2024/01/22 06:50:27;;;;;;;;;;;;;;;-0.13;100.00;96160.75;10437815;28;2806;-64
2024/01/22 06:55:30;;;;;;;;;;;;;;;-0.12;100.00;96149.22;10440168;28;3105;-65
2024/01/22 07:00:33;;;;;;;;;;;;;;;-0.17;100.00;96134.94;10436948;28;2949;-66
2024/01/22 07:05:35;;;;;;;;;;;;;;;-0.17;100.00;96154.25;10439725;28;3001;-66
2024/01/22 07:10:40;;;;;;;;;;;;;;;-0.08;100.00;96145.13;10433265;28;2989;-64
2024/01/22 07:15:43;;;;;;;;;;;;;;;0.08;100.00;96153.75;10439816;28;2918;-64
2024/01/22 07:20:45;;;;;;;;;;;;;;;0.23;100.00;96143.81;10438130;28;2930;-65
2024/01/22 07:25:48;;;;;;;;;;;;;;;0.26;100.00;96152.19;10432876;28;2939;-65
2024/01/22 07:30:51;;;;;;;;;;;;;;;0.28;100.00;96151.16;10439472;28;2850;-64
2024/01/22 07:35:54;;;;;;;;;;;;;;;0.29;100.00;96153.59;10430848;28;3009;-69
2024/01/22 07:40:56;;;;;;;;;;;;;;;0.34;100.00;96161.75;10408751;28;3087;-68
2024/01/22 07:45:59;;;;;;;;;;;;;;;0.46;100.00;96160.16;10433668;28;3126;-67
2024/01/22 07:51:05;;;;;;;;;;;;;;;0.61;100.00;96167.91;10426522;28;2978;-73
2024/01/22 07:56:07;;;;;;;;;;;;;;;0.83;100.00;96157.97;10434071;28;3013;-66
2024/01/22 08:01:11;;;;;;;;;;;;;;;1.22;100.00;96154.47;10411236;28;2965;-64
2024/01/22 08:06:14;;;;;;;;;;;;;;;1.54;100.00;96160.75;10431361;28;2990;-65
2024/01/22 08:11:18;;;;;;;;;;;;;;;1.98;100.00;96156.53;10410128;28;2974;-68
2024/01/22 08:16:20;;;;;;;;;;;;;;;2.28;100.00;96161.28;10427225;28;3025;-68
2024/01/22 08:21:23;;;;;;;;;;;;;;;2.48;100.00;96177.91;10430351;28;2902;-72
2024/01/22 08:26:25;;;;;;;;;;;;;;;2.78;100.00;96193.25;10429504;28;3025;-67
2024/01/22 08:31:28;;;;;;;;;;;;;;;2.68;100.00;96218.44;10426766;28;3006;-65
2024/01/22 08:36:31;;;;;;;;;;;;;;;2.59;100.00;96221.53;10425760;28;3059;-66
2024/01/22 08:41:33;;;;;;;;;;;;;;;2.60;100.00;96200.09;10402753;28;3195;-65
2024/01/22 08:46:36;;;;;;;;;;;;;;;2.78;100.00;96182.63;10427319;28;3099;-66
2024/01/22 08:51:39;;;;;;;;;;;;;;;3.03;100.00;96172.03;10427265;28;3054;-67
2024/01/22 08:56:42;;;;;;;;;;;;;;;3.07;100.00;96174.06;10425645;28;3110;-65
2024/01/22 09:01:44;;;;;;;;;;;;;;;3.31;100.00;96160.97;10427264;28;2993;-66
2024/01/22 09:06:47;;;;;;;;;;;;;;;3.62;95.18;96163.53;10427098;28;3073;-68
2024/01/22 09:11:50;;;;;;;;;;;;;;;3.70;93.10;96165.91;10410674;28;2950;-68
2024/01/22 09:16:52;;;;;;;;;;;;;;;4.00;84.57;96154.53;10405225;28;3152;-68
2024/01/22 09:21:56;;;;;;;;;;;;;;;4.17;80.35;96147.56;10424239;28;2958;-65
2024/01/22 09:26:59;;;;;;;;;;;;;;;4.30;79.00;96143.94;10427694;28;2993;-66
2024/01/22 09:32:01;;;;;;;;;;;;;;;4.40;78.50;96136.22;10432380;28;2978;-68
2024/01/22 09:37:04;;;;;;;;;;;;;;;4.61;76.38;96138.38;10421072;28;3414;-67
2024/01/22 09:42:06;;;;;;;;;;;;;;;4.55;82.54;96128.63;10428535;28;3076;-66
2024/01/22 09:47:09;;;;;;;;;;;;;;;4.91;76.68;96121.56;10429379;28;3098;-66
2024/01/22 09:52:11;;;;;;;;;;;;;;;5.05;77.15;96098.16;10434974;28;3017;-66
2024/01/22 09:57:14;;;;;;;;;;;;;;;5.21;82.90;96104.66;10438469;28;2984;-66
2024/01/22 10:02:17;;;;;;;;;;;;;;;5.48;85.02;96095.16;10430558;28;2837;-65
2024/01/22 10:07:19;;;;;;;;;;;;;;;5.77;81.23;96084.56;10433449;28;3072;-66
2024/01/22 10:12:22;;;;;;;;;;;;;;;6.03;78.81;96076.03;10431118;28;3152;-66
2024/01/22 10:17:26;;;;;;;;;;;;;;;6.16;79.11;96056.25;10437379;28;2962;-66
2024/01/22 10:22:28;;;;;;;;;;;;;;;6.18;82.33;96038.16;10435441;28;2969;-66
2024/01/22 10:27:31;;;;;;;;;;;;;;;6.39;81.57;96036.66;10435548;28;2934;-66
2024/01/22 10:32:34;;;;;;;;;;;;;;;6.58;80.21;96031.91;10431711;28;3014;-67
2024/01/22 10:37:36;;;;;;;;;;;;;;;6.69;84.31;96018.50;10430638;28;3465;-66
2024/01/22 10:42:40;;;;;;;;;;;;;;;6.76;82.67;96007.63;10427440;28;3057;-67
2024/01/22 10:47:43;;;;;;;;;;;;;;;6.78;85.67;96000.19;10427374;28;3059;-66
2024/01/22 10:52:46;;;;;;;;;;;;;;;6.59;90.86;95991.59;10427460;28;3057;-66
2024/01/22 10:57:48;;;;;;;;;;;;;;;6.79;94.38;95980.41;10423540;28;3006;-67
2024/01/22 11:02:53;;;;;;;;;;;;;;;6.62;99.04;95979.63;10431100;28;2914;-66
2024/01/22 11:07:56;;;;;;;;;;;;;;;6.42;98.93;95982.75;10434232;28;3048;-68
2024/01/22 11:12:59;;;;;;;;;;;;;;;6.53;100.00;95967.72;10432038;28;2997;-65
2024/01/22 11:18:01;;;;;;;;;;;;;;;6.90;100.00;95955.47;10439526;28;3036;-70
2024/01/22 11:23:04;;;;;;;;;;;;;;;7.32;100.00;95938.94;10432407;28;3077;-67
2024/01/22 11:28:09;;;;;;;;;;;;;;;7.55;98.20;95927.94;10430755;28;3016;-67
2024/01/22 11:33:14;;;;;;;;;;;;;;;7.66;98.47;95926.22;10434646;28;2924;-65
2024/01/22 11:38:17;;;;;;;;;;;;;;;7.96;96.68;95917.69;10424487;28;3303;-71
2024/01/22 11:43:19;;;;;;;;;;;;;;;8.51;89.17;95911.19;10429690;28;2973;-72
2024/01/22 11:48:22;;;;;;;;;;;;;;;8.53;90.79;95892.22;10426746;28;3329;-72
2024/01/22 11:53:25;;;;;;;;;;;;;;;8.62;87.95;95886.09;10431529;28;3073;-74
2024/01/22 11:58:27;;;;;;;;;;;;;;;8.70;84.45;95859.88;10427384;28;3088;-67
2024/01/22 12:09:12;;;;;;;;;;;;;;;9.11;83.59;95837.56;10432254;28;3088;-66
2024/01/22 12:14:15;;;;;;;;;;;;;;;9.16;86.48;95826.88;10433663;28;2981;-70
2024/01/22 12:19:18;;;;;;;;;;;;;;;9.30;78.21;95815.66;10431377;28;3069;-69
2024/01/22 12:24:21;;;;;;;;;;;;;;;9.32;77.22;95819.66;10431491;28;3082;-67
2024/01/22 12:29:24;;;;;;;;;;;;;;;9.26;78.44;95804.63;10426474;28;3037;-66
2024/01/22 12:34:28;;;;;;;;;;;;;;;9.16;88.67;95800.06;10432814;28;2993;-70
2024/01/22 12:39:31;;;;;;;;;;;;;;;8.69;90.99;95788.59;10433536;28;2949;-68
2024/01/22 12:44:33;;;;;;;;;;;;;;;8.81;81.52;95773.09;10426951;28;3104;-65
2024/01/22 12:49:36;;;;;;;;;;;;;;;8.76;81.78;95773.09;10433003;28;2924;-68
2024/01/22 12:54:39;;;;;;;;;;;;;;;9.01;80.64;95770.50;10433799;28;2915;-68
2024/01/22 12:59:41;;;;;;;;;;;;;;;9.15;79.68;95755.50;10433028;28;2979;-67
2024/01/22 13:04:44;;;;;;;;;;;;;;;9.13;79.97;95754.19;10430542;28;3021;-70
2024/01/22 13:09:47;;;;;;;;;;;;;;;9.12;80.82;95734.59;10422473;28;2881;-68
2024/01/22 13:14:50;;;;;;;;;;;;;;;9.16;86.80;95746.41;10417566;28;3049;-67
2024/01/22 13:19:52;;;;;;;;;;;;;;;9.16;85.10;95750.94;10439375;28;3223;-67
2024/01/22 13:24:56;;;;;;;;;;;;;;;8.95;84.24;95744.75;10437970;28;3053;-67
2024/01/22 13:29:58;;;;;;;;;;;;;;;8.90;84.02;95748.19;10436816;28;2898;-66
2024/01/22 13:35:02;;;;;;;;;;;;;;;9.04;80.66;95743.16;10428250;28;2818;-67
2024/01/22 13:40:05;;;;;;;;;;;;;;;8.79;86.81;95741.22;10437408;28;3116;-69
2024/01/22 13:45:08;;;;;;;;;;;;;;;8.61;99.08;95744.34;10435291;28;2976;-68
2024/01/22 13:50:11;;;;;;;;;;;;;;;8.57;94.76;95768.16;10432025;28;3040;-70
2024/01/22 13:55:15;;;;;;;;;;;;;;;8.46;99.27;95758.50;10442677;28;3143;-68
2024/01/22 14:00:18;;;;;;;;;;;;;;;8.29;98.63;95757.81;10438619;28;3029;-67
2024/01/22 14:05:20;;;;;;;;;;;;;;;8.43;99.47;95761.69;10442529;28;2994;-69
2024/01/22 14:10:23;;;;;;;;;;;;;;;8.60;97.34;95740.06;10436667;28;2965;-66
2024/01/22 14:15:26;;;;;;;;;;;;;;;8.81;89.65;95727.53;10438968;28;3040;-68
2024/01/22 14:20:29;;;;;;;;;;;;;;;8.78;92.36;95722.69;10440212;28;3065;-72
2024/01/22 14:25:32;;;;;;;;;;;;;;;8.71;96.69;95722.13;10434320;28;2828;-66
2024/01/22 14:30:34;;;;;;;;;;;;;;;9.02;100.00;95686.31;10435622;28;2867;-68
2024/01/22 14:35:37;;;;;;;;;;;;;;;8.96;100.00;95708.00;10434084;28;2996;-66
2024/01/22 14:40:39;;;;;;;;;;;;;;;9.01;100.00;95700.78;10430525;28;3331;-67
2024/01/22 14:45:42;;;;;;;;;;;;;;;9.03;100.00;95706.69;10426034;28;2977;-67
2024/01/22 14:50:45;;;;;;;;;;;;;;;9.02;100.00;95704.25;10433443;28;3005;-64
2024/01/22 14:55:47;;;;;;;;;;;;;;;8.98;100.00;95705.88;10434332;28;2863;-66
2024/01/22 15:00:50;;;;;;;;;;;;;;;8.88;100.00;95722.72;10441974;28;3006;-67
2024/01/22 15:05:52;;;;;;;;;;;;;;;8.66;100.00;95723.75;10427973;28;2965;-66
2024/01/22 15:10:55;;;;;;;;;;;;;;;8.68;100.00;95723.47;10433912;28;2911;-66
2024/01/22 15:15:58;;;;;;;;;;;;;;;8.65;100.00;95714.09;10421970;28;2924;-65
2024/01/22 15:21:00;;;;;;;;;;;;;;;8.45;100.00;95697.94;10431601;28;3268;-66
2024/01/22 15:26:04;;;;;;;;;;;;;;;8.13;100.00;95696.13;10434430;28;3138;-69
2024/01/22 15:31:06;;;;;;;;;;;;;;;7.89;100.00;95683.41;10428637;28;2973;-67
2024/01/22 15:36:09;;;;;;;;;;;;;;;7.71;100.00;95676.63;10434403;28;3304;-73
2024/01/22 15:41:13;;;;;;;;;;;;;;;7.58;100.00;95673.34;10429369;28;3137;-71
2024/01/22 15:46:16;;;;;;;;;;;;;;;7.26;100.00;95693.94;10433155;28;3006;-73
2024/01/22 15:51:20;;;;;;;;;;;;;;;7.12;100.00;95700.75;10433230;28;2986;-66
2024/01/22 15:56:22;;;;;;;;;;;;;;;7.06;100.00;95702.56;10434333;28;3343;-66
2024/01/22 16:01:26;;;;;;;;;;;;;;;7.11;100.00;95732.00;10426211;28;3026;-67
2024/01/22 16:06:29;;;;;;;;;;;;;;;6.95;100.00;95723.03;10428243;28;3030;-67
2024/01/22 16:11:32;;;;;;;;;;;;;;;6.96;100.00;95735.34;10433566;28;2993;-67
2024/01/22 16:16:36;;;;;;;;;;;;;;;7.00;100.00;95735.66;10432306;28;3316;-71
2024/01/22 16:21:39;;;;;;;;;;;;;;;6.99;100.00;95729.47;10414862;28;2955;-64
2024/01/22 16:26:42;;;;;;;;;;;;;;;7.14;100.00;95709.34;10432864;28;2912;-66
2024/01/22 16:31:44;;;;;;;;;;;;;;;7.22;100.00;95724.91;10430451;28;2846;-67
2024/01/22 16:36:49;;;;;;;;;;;;;;;7.36;100.00;95704.69;10426186;28;3165;-69
2024/01/22 16:41:51;;;;;;;;;;;;;;;7.36;100.00;95731.44;10424869;28;2810;-67
2024/01/22 16:46:54;;;;;;;;;;;;;;;7.30;100.00;95721.75;10424300;28;2840;-68
2024/01/22 16:51:57;;;;;;;;;;;;;;;7.32;100.00;95731.16;10429226;28;2858;-68
2024/01/22 16:57:00;;;;;;;;;;;;;;;7.41;100.00;95731.50;10446997;28;2814;-67
2024/01/22 17:02:07;;;;;;;;;;;;;;;7.32;100.00;95749.06;10436455;28;3013;-66
2024/01/22 17:07:11;;;;;;;;;;;;;;;7.27;100.00;95786.44;10430573;28;2313;-68
2024/01/22 17:12:14;;;;;;;;;;;;;;;7.19;100.00;95803.75;10456405;28;2250;-73
2024/01/22 17:17:18;;;;;;;;;;;;;;;7.14;100.00;95802.91;10445283;28;1887;-66
2024/01/22 17:22:20;;;;;;;;;;;;;;;7.01;100.00;95818.25;10458164;28;2020;-66
2024/01/22 17:27:23;;;;;;;;;;;;;;;6.95;100.00;95829.94;10455403;28;1462;-66
2024/01/22 17:32:26;;;;;;;;;;;;;;;6.84;100.00;95852.25;10453737;28;2320;-68
2024/01/22 17:37:28;;;;;;;;;;;;;;;6.79;100.00;95862.84;10435567;28;2389;-67
2024/01/22 17:42:30;;;;;;;;;;;;;;;6.76;100.00;95848.13;10454006;28;1909;-68
2024/01/22 17:47:33;;;;;;;;;;;;;;;6.66;100.00;95866.69;10450622;28;1666;-66
2024/01/22 17:52:35;;;;;;;;;;;;;;;6.81;100.00;95892.81;10446398;28;1442;-68
2024/01/22 17:57:38;;;;;;;;;;;;;;;6.77;100.00;95910.41;10451781;28;1891;-67
2024/01/22 18:02:40;;;;;;;;;;;;;;;6.81;100.00;95905.34;10457689;28;1964;-67
2024/01/22 18:07:43;;;;;;;;;;;;;;;6.81;100.00;95924.06;10448548;28;1470;-67
2024/01/22 18:12:45;;;;;;;;;;;;;;;6.77;100.00;95951.28;10454137;28;2220;-67
2024/01/22 18:17:48;;;;;;;;;;;;;;;6.78;100.00;95968.13;10449060;28;1511;-68
2024/01/22 18:22:50;;;;;;;;;;;;;;;6.76;100.00;95957.69;10449239;28;1914;-69
2024/01/22 18:27:53;;;;;;;;;;;;;;;6.74;100.00;95972.31;10454081;28;1672;-68
2024/01/22 18:32:55;;;;;;;;;;;;;;;6.73;100.00;95992.06;10455300;28;1754;-67
2024/01/22 18:37:58;;;;;;;;;;;;;;;6.76;100.00;96002.28;10451750;28;2917;-66
2024/01/22 18:43:00;;;;;;;;;;;;;;;6.69;100.00;96017.69;10449768;28;1902;-73
2024/01/22 18:48:03;;;;;;;;;;;;;;;6.69;100.00;96017.69;10460376;28;1558;-74
2024/01/22 18:53:05;;;;;;;;;;;;;;;6.62;100.00;96049.09;10457540;28;1486;-70
2024/01/22 18:58:08;;;;;;;;;;;;;;;6.51;100.00;96061.44;10467157;28;2455;-66
2024/01/22 19:03:10;;;;;;;;;;;;;;;6.37;100.00;96079.63;10449653;28;1983;-70
2024/01/22 19:08:13;;;;;;;;;;;;;;;6.26;100.00;96080.50;10448504;28;1445;-66
2024/01/22 19:13:16;;;;;;;;;;;;;;;6.20;100.00;96102.78;10453171;28;1701;-65
2024/01/22 19:18:18;;;;;;;;;;;;;;;6.11;100.00;96106.91;10447143;28;1489;-66
2024/01/22 19:23:21;;;;;;;;;;;;;;;6.04;100.00;96101.66;10447832;28;1911;-67
2024/01/22 19:28:25;;;;;;;;;;;;;;;6.02;100.00;96102.97;10440010;28;2934;-66
2024/01/22 19:33:27;;;;;;;;;;;;;;;5.90;100.00;96101.09;10437936;28;3001;-67
2024/01/22 19:38:30;;;;;;;;;;;;;;;5.86;100.00;96107.16;10431301;28;3010;-66
2024/01/22 19:43:32;;;;;;;;;;;;;;;5.82;100.00;96095.34;10435867;28;3121;-65
2024/01/22 19:48:36;;;;;;;;;;;;;;;5.80;100.00;96100.09;10435768;28;2954;-65
2024/01/22 19:53:38;;;;;;;;;;;;;;;5.75;100.00;96127.47;10427500;28;2954;-66
2024/01/22 19:58:41;;;;;;;;;;;;;;;5.79;100.00;96122.47;10434092;28;3107;-66
2024/01/22 20:03:46;;;;;;;;;;;;;;;5.84;100.00;96139.38;10432947;28;2865;-67
2024/01/22 20:08:49;;;;;;;;;;;;;;;5.87;100.00;96154.13;10429372;28;3049;-66
2024/01/22 20:13:52;;;;;;;;;;;;;;;5.87;100.00;96160.28;10427678;28;3008;-67
2024/01/22 20:18:54;;;;;;;;;;;;;;;5.84;100.00;96157.25;10425908;28;3092;-67
2024/01/22 20:23:57;;;;;;;;;;;;;;;5.79;100.00;96157.97;10432592;28;2945;-67
2024/01/22 20:29:09;;;;;;;;;;;;;;;5.75;100.00;96150.66;10433746;28;2954;-65
2024/01/22 20:34:11;;;;;;;;;;;;;;;5.70;100.00;96159.38;10438718;28;2982;-66
2024/01/22 20:39:14;;;;;;;;;;;;;;;5.68;100.00;96153.47;10433635;28;3062;-65
2024/01/22 20:44:17;;;;;;;;;;;;;;;5.72;100.00;96164.47;10430522;28;3071;-70
2024/01/22 20:49:19;;;;;;;;;;;;;;;5.77;100.00;96165.38;10422230;28;3036;-69
2024/01/22 20:54:22;;;;;;;;;;;;;;;5.80;100.00;96162.25;10425757;28;3055;-66
2024/01/22 20:59:24;;;;;;;;;;;;;;;5.86;100.00;96152.53;10410495;28;3049;-66
2024/01/22 21:04:28;;;;;;;;;;;;;;;5.80;100.00;96159.59;10430299;28;2988;-67
2024/01/22 21:09:30;;;;;;;;;;;;;;;5.82;100.00;96154.03;10426341;28;2977;-65
2024/01/22 21:14:34;;;;;;;;;;;;;;;5.84;100.00;96157.25;10437533;28;3032;-65
2024/01/22 21:19:37;;;;;;;;;;;;;;;5.89;100.00;96171.53;10433032;28;2880;-65
2024/01/22 21:24:40;;;;;;;;;;;;;;;5.94;100.00;96177.00;10431666;28;2961;-67
2024/01/22 21:29:42;;;;;;;;;;;;;;;5.81;100.00;96171.06;10413381;28;2972;-67
2024/01/22 21:34:45;;;;;;;;;;;;;;;5.75;100.00;96172.81;10430908;28;3095;-65
2024/01/22 21:39:48;;;;;;;;;;;;;;;5.84;100.00;96187.41;10432887;28;3070;-66
2024/01/22 21:44:51;;;;;;;;;;;;;;;5.86;100.00;96201.34;10439507;28;3051;-66
2024/01/22 21:49:55;;;;;;;;;;;;;;;5.83;100.00;96193.00;10437451;28;2980;-65
2024/01/22 21:54:57;;;;;;;;;;;;;;;5.80;100.00;96191.63;10426285;28;2891;-66
2024/01/22 22:00:00;;;;;;;;;;;;;;;5.75;100.00;96193.34;10438365;28;2990;-66
2024/01/22 22:05:03;;;;;;;;;;;;;;;5.70;100.00;96197.50;10410225;28;3007;-65
2024/01/22 22:10:06;;;;;;;;;;;;;;;5.65;100.00;96205.41;10439260;28;2989;-68
2024/01/22 22:15:09;;;;;;;;;;;;;;;5.66;100.00;96207.03;10439429;28;2997;-65
2024/01/22 22:20:12;;;;;;;;;;;;;;;5.66;100.00;96211.53;10436438;28;3194;-65
2024/01/22 22:25:15;;;;;;;;;;;;;;;5.66;100.00;96211.53;10436348;28;2950;-65
2024/01/22 22:30:17;;;;;;;;;;;;;;;5.70;100.00;96210.84;10436470;28;2903;-64
2024/01/22 22:35:20;;;;;;;;;;;;;;;5.60;100.00;96215.16;10442833;28;2803;-66
2024/01/22 22:40:22;;;;;;;;;;;;;;;5.49;100.00;96221.28;10441733;28;2980;-71
2024/01/22 22:45:25;;;;;;;;;;;;;;;5.42;100.00;96221.41;10420184;28;2958;-71
2024/01/22 22:50:28;;;;;;;;;;;;;;;5.49;100.00;96210.63;10442533;28;2914;-72
2024/01/22 22:55:30;;;;;;;;;;;;;;;5.52;100.00;96200.28;10423581;28;3095;-66
2024/01/22 23:00:35;;;;;;;;;;;;;;;5.45;100.00;96204.94;10444259;28;3072;-66
2024/01/22 23:05:38;;;;;;;;;;;;;;;5.53;100.00;96193.09;10440435;28;2902;-66
2024/01/22 23:10:41;;;;;;;;;;;;;;;5.53;100.00;96201.09;10437687;28;3024;-65
2024/01/22 23:15:43;;;;;;;;;;;;;;;5.39;100.00;96187.19;10445397;28;3001;-65
2024/01/22 23:20:46;;;;;;;;;;;;;;;5.23;100.00;96191.34;10437206;28;3036;-64
2024/01/22 23:25:49;;;;;;;;;;;;;;;5.32;100.00;96189.16;10441314;28;3059;-65
2024/01/22 23:30:51;;;;;;;;;;;;;;;5.33;100.00;96174.78;10441692;28;3242;-66
2024/01/22 23:35:54;;;;;;;;;;;;;;;5.32;100.00;96171.31;10441692;28;3143;-64
2024/01/22 23:40:59;;;;;;;;;;;;;;;5.31;100.00;96187.53;10441149;28;2962;-69
2024/01/22 23:46:01;;;;;;;;;;;;;;;5.42;100.00;96173.41;10441737;28;2994;-66
2024/01/22 23:51:04;;;;;;;;;;;;;;;5.32;100.00;96157.97;10435014;28;2937;-65
2024/01/22 23:56:06;;;;;;;;;;;;;;;5.28;100.00;96187.97;10441728;28;2962;-65
